Orinda, California
Current Conditions -  °F | °C
As of 4:53 AM on Friday 19 Dec 2014 (Local Time) from KCCR Reporting Station
Overcast Overcast  
Wind Chill: 56°   Ceiling: 4600
Heat Index: 56°   Visibility: 10mi
Dew Point: 49°   Wind: 3mph
Humidity: 77%   Direction: 160°SSE
Pressure: 30.13"   Gusts: NA
Location:  37.88°N, 122.18°W
Report Text: KCCR 191253Z 16003KT 10SM FEW037 BKN046 OVC055 13/09 A3013 RMK AO2 SLP188 T01330094
Loading
Personal Weather Stations






























Interactive Weather Map New forecast layout! Learn more

10-Day Weather Forecast

Advertisements
Track Severe Weather on mobile